sensor_id;sensor_type;location;lat;lon;timestamp;temperature;humidity
26745;DHT22;14342;50.960;13.880;2022-11-20T00:00:48;-1.40;99.90
26745;DHT22;14342;50.960;13.880;2022-11-20T00:01:50;-1.40;99.90
26745;DHT22;14342;50.960;13.880;2022-11-20T00:02:52;-1.40;99.90
26745;DHT22;14342;50.960;13.880;2022-11-20T00:03:53;-1.40;99.90
26745;DHT22;14342;50.960;13.880;2022-11-20T00:04:56;-1.40;99.90
26745;DHT22;14342;50.960;13.880;2022-11-20T00:05:59;-1.50;99.90
26745;DHT22;14342;50.960;13.880;2022-11-20T00:07:00;-1.50;99.90
26745;DHT22;14342;50.960;13.880;2022-11-20T00:08:01;-1.50;99.90
26745;DHT22;14342;50.960;13.880;2022-11-20T00:09:03;-1.50;99.90
26745;DHT22;14342;50.960;13.880;2022-11-20T00:10:05;-1.50;99.90
26745;DHT22;14342;50.960;13.880;2022-11-20T00:11:08;-1.40;99.90
26745;DHT22;14342;50.960;13.880;2022-11-20T00:12:08;-1.30;99.90
26745;DHT22;14342;50.960;13.880;2022-11-20T00:13:10;-1.20;99.90
26745;DHT22;14342;50.960;13.880;2022-11-20T00:14:10;-1.10;99.90
26745;DHT22;14342;50.960;13.880;2022-11-20T00:15:12;-0.90;99.90
26745;DHT22;14342;50.960;13.880;2022-11-20T00:16:13;-0.70;99.90
26745;DHT22;14342;50.960;13.880;2022-11-20T00:17:15;-0.60;99.90
26745;DHT22;14342;50.960;13.880;2022-11-20T00:18:16;-0.40;99.90
26745;DHT22;14342;50.960;13.880;2022-11-20T00:19:17;-0.50;99.90
26745;DHT22;14342;50.960;13.880;2022-11-20T00:20:19;-0.40;99.90
26745;DHT22;14342;50.960;13.880;2022-11-20T00:21:21;-0.30;99.90
26745;DHT22;14342;50.960;13.880;2022-11-20T00:22:22;-0.20;99.90
26745;DHT22;14342;50.960;13.880;2022-11-20T00:23:24;-0.10;99.90
26745;DHT22;14342;50.960;13.880;2022-11-20T00:24:24;-0.10;99.90
26745;DHT22;14342;50.960;13.880;2022-11-20T00:25:26;-0.10;99.90
26745;DHT22;14342;50.960;13.880;2022-11-20T00:26:27;-0.10;99.90
26745;DHT22;14342;50.960;13.880;2022-11-20T00:27:29;-0.20;99.90
26745;DHT22;14342;50.960;13.880;2022-11-20T00:28:29;-0.30;99.90
26745;DHT22;14342;50.960;13.880;2022-11-20T00:29:31;-0.40;99.90
26745;DHT22;14342;50.960;13.880;2022-11-20T00:30:31;-0.60;99.90
26745;DHT22;14342;50.960;13.880;2022-11-20T00:31:34;-0.70;99.90
26745;DHT22;14342;50.960;13.880;2022-11-20T00:32:36;-0.80;99.90
26745;DHT22;14342;50.960;13.880;2022-11-20T00:33:36;-0.90;99.90
26745;DHT22;14342;50.960;13.880;2022-11-20T00:34:38;-0.90;99.90
26745;DHT22;14342;50.960;13.880;2022-11-20T00:35:40;-1.10;99.90
26745;DHT22;14342;50.960;13.880;2022-11-20T00:36:41;-1.20;99.90
26745;DHT22;14342;50.960;13.880;2022-11-20T00:37:42;-1.30;99.90
26745;DHT22;14342;50.960;13.880;2022-11-20T00:38:44;-1.30;99.90
26745;DHT22;14342;50.960;13.880;2022-11-20T00:39:45;-1.30;99.90
26745;DHT22;14342;50.960;13.880;2022-11-20T00:40:46;-1.30;99.90
26745;DHT22;14342;50.960;13.880;2022-11-20T00:41:47;-1.40;99.90
26745;DHT22;14342;50.960;13.880;2022-11-20T00:42:48;-1.30;99.90
26745;DHT22;14342;50.960;13.880;2022-11-20T00:43:49;-1.20;99.90
26745;DHT22;14342;50.960;13.880;2022-11-20T00:44:52;-1.10;99.90
26745;DHT22;14342;50.960;13.880;2022-11-20T00:45:56;-0.90;99.90
26745;DHT22;14342;50.960;13.880;2022-11-20T00:46:57;-0.80;99.90
26745;DHT22;14342;50.960;13.880;2022-11-20T00:47:58;-0.70;99.90
26745;DHT22;14342;50.960;13.880;2022-11-20T00:49:00;-0.60;99.90
26745;DHT22;14342;50.960;13.880;2022-11-20T00:50:00;-0.60;99.90
26745;DHT22;14342;50.960;13.880;2022-11-20T00:51:03;-0.50;99.90
26745;DHT22;14342;50.960;13.880;2022-11-20T00:52:04;-0.40;99.90
26745;DHT22;14342;50.960;13.880;2022-11-20T00:53:05;-0.30;99.90
26745;DHT22;14342;50.960;13.880;2022-11-20T00:54:06;-0.20;99.90
26745;DHT22;14342;50.960;13.880;2022-11-20T00:55:08;-0.20;99.90
26745;DHT22;14342;50.960;13.880;2022-11-20T00:56:09;-0.20;99.90
26745;DHT22;14342;50.960;13.880;2022-11-20T00:57:11;-0.30;99.90
26745;DHT22;14342;50.960;13.880;2022-11-20T00:58:11;-0.40;99.90
26745;DHT22;14342;50.960;13.880;2022-11-20T00:59:13;-0.50;99.90
26745;DHT22;14342;50.960;13.880;2022-11-20T01:00:14;-0.70;99.90
26745;DHT22;14342;50.960;13.880;2022-11-20T01:01:17;-0.70;99.90
26745;DHT22;14342;50.960;13.880;2022-11-20T01:02:18;-0.60;99.90
26745;DHT22;14342;50.960;13.880;2022-11-20T01:03:19;-0.50;99.90
26745;DHT22;14342;50.960;13.880;2022-11-20T01:04:21;-0.50;99.90
26745;DHT22;14342;50.960;13.880;2022-11-20T01:05:22;-0.50;99.90
26745;DHT22;14342;50.960;13.880;2022-11-20T01:06:25;-0.50;99.90
26745;DHT22;14342;50.960;13.880;2022-11-20T01:07:27;-0.50;99.90
26745;DHT22;14342;50.960;13.880;2022-11-20T01:08:29;-0.50;99.90
26745;DHT22;14342;50.960;13.880;2022-11-20T01:09:31;-0.40;99.90
26745;DHT22;14342;50.960;13.880;2022-11-20T01:10:32;-0.40;99.90
26745;DHT22;14342;50.960;13.880;2022-11-20T01:11:34;-0.30;99.90
26745;DHT22;14342;50.960;13.880;2022-11-20T01:12:35;-0.40;99.90
26745;DHT22;14342;50.960;13.880;2022-11-20T01:13:36;-0.40;99.90
26745;DHT22;14342;50.960;13.880;2022-11-20T01:14:39;-0.30;99.90
26745;DHT22;14342;50.960;13.880;2022-11-20T01:15:41;-0.40;99.90
26745;DHT22;14342;50.960;13.880;2022-11-20T01:16:42;-0.40;99.90
26745;DHT22;14342;50.960;13.880;2022-11-20T01:17:44;-0.50;99.90
26745;DHT22;14342;50.960;13.880;2022-11-20T01:18:46;-0.60;99.90
26745;DHT22;14342;50.960;13.880;2022-11-20T01:19:48;-0.70;99.90
26745;DHT22;14342;50.960;13.880;2022-11-20T01:20:49;-0.80;99.90
26745;DHT22;14342;50.960;13.880;2022-11-20T01:21:52;-0.80;99.90
26745;DHT22;14342;50.960;13.880;2022-11-20T01:22:54;-0.90;99.90
26745;DHT22;14342;50.960;13.880;2022-11-20T01:23:55;-0.90;99.90
26745;DHT22;14342;50.960;13.880;2022-11-20T01:24:56;-1.00;99.90
26745;DHT22;14342;50.960;13.880;2022-11-20T01:25:59;-1.20;99.90
26745;DHT22;14342;50.960;13.880;2022-11-20T01:27:01;-1.30;99.90
26745;DHT22;14342;50.960;13.880;2022-11-20T01:28:03;-1.30;99.90
26745;DHT22;14342;50.960;13.880;2022-11-20T01:29:03;-1.40;99.90
26745;DHT22;14342;50.960;13.880;2022-11-20T01:30:05;-1.40;99.90
26745;DHT22;14342;50.960;13.880;2022-11-20T01:31:10;-1.50;99.90
26745;DHT22;14342;50.960;13.880;2022-11-20T01:32:12;-1.50;99.90
26745;DHT22;14342;50.960;13.880;2022-11-20T01:33:13;-1.40;99.90
26745;DHT22;14342;50.960;13.880;2022-11-20T01:34:15;-1.40;99.90
26745;DHT22;14342;50.960;13.880;2022-11-20T01:35:17;-1.40;99.90
26745;DHT22;14342;50.960;13.880;2022-11-20T01:36:18;-1.50;99.90
26745;DHT22;14342;50.960;13.880;2022-11-20T01:37:21;-1.50;99.90
26745;DHT22;14342;50.960;13.880;2022-11-20T01:38:22;-1.50;99.90
26745;DHT22;14342;50.960;13.880;2022-11-20T01:39:25;-1.40;99.90
26745;DHT22;14342;50.960;13.880;2022-11-20T01:40:26;-1.30;99.90
26745;DHT22;14342;50.960;13.880;2022-11-20T01:41:29;-1.30;99.90
26745;DHT22;14342;50.960;13.880;2022-11-20T01:42:52;-1.30;99.90
26745;DHT22;14342;50.960;13.880;2022-11-20T01:44:13;-1.50;99.90
26745;DHT22;14342;50.960;13.880;2022-11-20T01:46:35;-1.80;99.90
26745;DHT22;14342;50.960;13.880;2022-11-20T01:47:38;-1.70;99.90
26745;DHT22;14342;50.960;13.880;2022-11-20T01:48:41;-1.50;99.90
26745;DHT22;14342;50.960;13.880;2022-11-20T01:49:44;-1.70;99.90
26745;DHT22;14342;50.960;13.880;2022-11-20T01:50:47;-1.70;99.90
26745;DHT22;14342;50.960;13.880;2022-11-20T01:51:49;-1.70;99.90
26745;DHT22;14342;50.960;13.880;2022-11-20T01:52:52;-1.80;99.90
26745;DHT22;14342;50.960;13.880;2022-11-20T01:53:56;-1.80;99.90
26745;DHT22;14342;50.960;13.880;2022-11-20T01:54:59;-1.80;99.90
26745;DHT22;14342;50.960;13.880;2022-11-20T01:56:01;-1.80;99.90
26745;DHT22;14342;50.960;13.880;2022-11-20T01:57:03;-1.90;99.90
26745;DHT22;14342;50.960;13.880;2022-11-20T01:58:05;-1.90;99.90
26745;DHT22;14342;50.960;13.880;2022-11-20T01:59:07;-1.90;99.90
26745;DHT22;14342;50.960;13.880;2022-11-20T02:00:10;-1.90;99.90
26745;DHT22;14342;50.960;13.880;2022-11-20T02:01:12;-1.90;99.90
26745;DHT22;14342;50.960;13.880;2022-11-20T02:02:14;-1.90;99.90
26745;DHT22;14342;50.960;13.880;2022-11-20T02:03:15;-1.90;99.90
26745;DHT22;14342;50.960;13.880;2022-11-20T02:04:17;-1.80;99.90
26745;DHT22;14342;50.960;13.880;2022-11-20T02:05:19;-1.80;99.90
26745;DHT22;14342;50.960;13.880;2022-11-20T02:06:24;-1.80;99.90
26745;DHT22;14342;50.960;13.880;2022-11-20T02:07:25;-1.80;99.90
26745;DHT22;14342;50.960;13.880;2022-11-20T02:08:29;-1.80;99.90
26745;DHT22;14342;50.960;13.880;2022-11-20T02:09:29;-1.90;99.90
26745;DHT22;14342;50.960;13.880;2022-11-20T02:10:31;-2.00;99.90
26745;DHT22;14342;50.960;13.880;2022-11-20T02:11:32;-2.00;99.90
26745;DHT22;14342;50.960;13.880;2022-11-20T02:12:33;-2.00;99.90
26745;DHT22;14342;50.960;13.880;2022-11-20T02:13:53;-2.10;99.90
26745;DHT22;14342;50.960;13.880;2022-11-20T02:14:54;-2.10;99.90
26745;DHT22;14342;50.960;13.880;2022-11-20T02:15:55;-2.10;99.90
26745;DHT22;14342;50.960;13.880;2022-11-20T02:16:56;-2.10;99.90
26745;DHT22;14342;50.960;13.880;2022-11-20T02:17:58;-2.00;99.90
26745;DHT22;14342;50.960;13.880;2022-11-20T02:18:59;-2.00;99.90
26745;DHT22;14342;50.960;13.880;2022-11-20T02:20:01;-2.00;99.90
26745;DHT22;14342;50.960;13.880;2022-11-20T02:21:03;-2.00;99.90
26745;DHT22;14342;50.960;13.880;2022-11-20T02:22:08;-2.10;99.90
26745;DHT22;14342;50.960;13.880;2022-11-20T02:23:14;-2.10;99.90
26745;DHT22;14342;50.960;13.880;2022-11-20T02:24:21;-2.10;99.90
26745;DHT22;14342;50.960;13.880;2022-11-20T02:25:22;-2.10;99.90
26745;DHT22;14342;50.960;13.880;2022-11-20T02:26:25;-2.10;99.90
26745;DHT22;14342;50.960;13.880;2022-11-20T02:27:27;-2.00;99.90
26745;DHT22;14342;50.960;13.880;2022-11-20T02:28:30;-1.90;99.90
26745;DHT22;14342;50.960;13.880;2022-11-20T02:29:31;-1.90;99.90
26745;DHT22;14342;50.960;13.880;2022-11-20T02:30:34;-1.90;99.90
26745;DHT22;14342;50.960;13.880;2022-11-20T02:31:37;-1.90;99.90
26745;DHT22;14342;50.960;13.880;2022-11-20T02:32:39;-1.90;99.90
26745;DHT22;14342;50.960;13.880;2022-11-20T02:33:40;-1.90;99.90
26745;DHT22;14342;50.960;13.880;2022-11-20T02:34:41;-1.80;99.90
26745;DHT22;14342;50.960;13.880;2022-11-20T02:35:43;-1.80;99.90
26745;DHT22;14342;50.960;13.880;2022-11-20T02:36:45;-1.70;99.90
26745;DHT22;14342;50.960;13.880;2022-11-20T02:37:48;-1.70;99.90
26745;DHT22;14342;50.960;13.880;2022-11-20T02:38:50;-1.70;99.90
26745;DHT22;14342;50.960;13.880;2022-11-20T02:39:53;-1.80;99.90
26745;DHT22;14342;50.960;13.880;2022-11-20T02:40:54;-1.90;99.90
26745;DHT22;14342;50.960;13.880;2022-11-20T02:41:55;-1.90;99.90
26745;DHT22;14342;50.960;13.880;2022-11-20T02:42:56;-1.90;99.90
26745;DHT22;14342;50.960;13.880;2022-11-20T02:43:58;-1.80;99.90
26745;DHT22;14342;50.960;13.880;2022-11-20T02:44:58;-1.70;99.90
26745;DHT22;14342;50.960;13.880;2022-11-20T02:46:00;-1.60;99.90
26745;DHT22;14342;50.960;13.880;2022-11-20T02:47:01;-1.50;99.90
26745;DHT22;14342;50.960;13.880;2022-11-20T02:48:02;-1.40;99.90
26745;DHT22;14342;50.960;13.880;2022-11-20T02:49:03;-1.30;99.90
26745;DHT22;14342;50.960;13.880;2022-11-20T02:50:05;-1.30;99.90
26745;DHT22;14342;50.960;13.880;2022-11-20T02:51:06;-1.40;99.90
26745;DHT22;14342;50.960;13.880;2022-11-20T02:52:08;-1.40;99.90
26745;DHT22;14342;50.960;13.880;2022-11-20T02:53:08;-1.40;99.90
26745;DHT22;14342;50.960;13.880;2022-11-20T02:54:10;-1.30;99.90
26745;DHT22;14342;50.960;13.880;2022-11-20T02:55:12;-1.40;99.90
26745;DHT22;14342;50.960;13.880;2022-11-20T02:56:13;-1.40;99.90
26745;DHT22;14342;50.960;13.880;2022-11-20T02:57:14;-1.40;99.90
26745;DHT22;14342;50.960;13.880;2022-11-20T02:58:16;-1.40;99.90
26745;DHT22;14342;50.960;13.880;2022-11-20T02:59:16;-1.40;99.90
26745;DHT22;14342;50.960;13.880;2022-11-20T03:00:18;-1.40;99.90
26745;DHT22;14342;50.960;13.880;2022-11-20T03:01:19;-1.20;99.90
26745;DHT22;14342;50.960;13.880;2022-11-20T03:02:21;-1.20;99.90
26745;DHT22;14342;50.960;13.880;2022-11-20T03:03:21;-1.10;99.90
26745;DHT22;14342;50.960;13.880;2022-11-20T03:04:23;-1.10;99.90
26745;DHT22;14342;50.960;13.880;2022-11-20T03:05:24;-1.00;99.90
26745;DHT22;14342;50.960;13.880;2022-11-20T03:06:26;-1.00;99.90
26745;DHT22;14342;50.960;13.880;2022-11-20T03:07:26;-1.00;99.90
26745;DHT22;14342;50.960;13.880;2022-11-20T03:08:28;-1.00;99.90
26745;DHT22;14342;50.960;13.880;2022-11-20T03:09:28;-0.90;99.90
26745;DHT22;14342;50.960;13.880;2022-11-20T03:10:31;-0.80;99.90
26745;DHT22;14342;50.960;13.880;2022-11-20T03:11:32;-0.90;99.90
26745;DHT22;14342;50.960;13.880;2022-11-20T03:12:33;-1.00;99.90
26745;DHT22;14342;50.960;13.880;2022-11-20T03:13:35;-1.10;99.90
26745;DHT22;14342;50.960;13.880;2022-11-20T03:14:36;-1.10;99.90
26745;DHT22;14342;50.960;13.880;2022-11-20T03:15:40;-1.10;99.90
26745;DHT22;14342;50.960;13.880;2022-11-20T03:16:41;-1.10;99.90
26745;DHT22;14342;50.960;13.880;2022-11-20T03:17:42;-1.10;99.90
26745;DHT22;14342;50.960;13.880;2022-11-20T03:18:43;-1.10;99.90
26745;DHT22;14342;50.960;13.880;2022-11-20T03:19:44;-1.10;99.90
26745;DHT22;14342;50.960;13.880;2022-11-20T03:20:46;-1.00;99.90
26745;DHT22;14342;50.960;13.880;2022-11-20T03:21:46;-1.10;99.90
26745;DHT22;14342;50.960;13.880;2022-11-20T03:22:48;-1.10;99.90
26745;DHT22;14342;50.960;13.880;2022-11-20T03:23:48;-1.00;99.90
26745;DHT22;14342;50.960;13.880;2022-11-20T03:24:50;-1.10;99.90
26745;DHT22;14342;50.960;13.880;2022-11-20T03:25:52;-1.10;99.90
26745;DHT22;14342;50.960;13.880;2022-11-20T03:26:54;-1.20;99.90
26745;DHT22;14342;50.960;13.880;2022-11-20T03:27:55;-1.30;99.90
26745;DHT22;14342;50.960;13.880;2022-11-20T03:28:57;-1.30;99.90
26745;DHT22;14342;50.960;13.880;2022-11-20T03:29:58;-1.30;99.90
26745;DHT22;14342;50.960;13.880;2022-11-20T03:31:04;-1.30;99.90
26745;DHT22;14342;50.960;13.880;2022-11-20T03:32:04;-1.40;99.90
26745;DHT22;14342;50.960;13.880;2022-11-20T03:33:06;-1.50;99.90
26745;DHT22;14342;50.960;13.880;2022-11-20T03:34:07;-1.70;99.90
26745;DHT22;14342;50.960;13.880;2022-11-20T03:35:09;-1.70;99.90
26745;DHT22;14342;50.960;13.880;2022-11-20T03:36:10;-1.80;99.90
26745;DHT22;14342;50.960;13.880;2022-11-20T03:37:12;-1.80;99.90
26745;DHT22;14342;50.960;13.880;2022-11-20T03:38:13;-1.90;99.90
26745;DHT22;14342;50.960;13.880;2022-11-20T03:39:14;-2.00;99.90
26745;DHT22;14342;50.960;13.880;2022-11-20T03:40:15;-2.00;99.90
26745;DHT22;14342;50.960;13.880;2022-11-20T03:41:18;-2.10;99.90
26745;DHT22;14342;50.960;13.880;2022-11-20T03:42:19;-2.00;99.90
26745;DHT22;14342;50.960;13.880;2022-11-20T03:43:38;-2.00;99.90
26745;DHT22;14342;50.960;13.880;2022-11-20T03:44:40;-2.00;99.90
26745;DHT22;14342;50.960;13.880;2022-11-20T03:45:41;-2.10;99.90
26745;DHT22;14342;50.960;13.880;2022-11-20T03:46:42;-2.10;99.90
26745;DHT22;14342;50.960;13.880;2022-11-20T03:47:44;-2.20;99.90
26745;DHT22;14342;50.960;13.880;2022-11-20T03:48:45;-2.30;99.90
26745;DHT22;14342;50.960;13.880;2022-11-20T03:49:46;-2.40;99.90
26745;DHT22;14342;50.960;13.880;2022-11-20T03:50:47;-2.40;99.90
26745;DHT22;14342;50.960;13.880;2022-11-20T03:51:48;-2.30;99.90
26745;DHT22;14342;50.960;13.880;2022-11-20T03:52:49;-2.20;99.90
26745;DHT22;14342;50.960;13.880;2022-11-20T03:53:52;-2.00;99.90
26745;DHT22;14342;50.960;13.880;2022-11-20T03:54:53;-2.00;99.90
26745;DHT22;14342;50.960;13.880;2022-11-20T03:55:55;-1.90;99.90
26745;DHT22;14342;50.960;13.880;2022-11-20T03:56:57;-1.90;99.90
26745;DHT22;14342;50.960;13.880;2022-11-20T03:57:59;-1.90;99.90
26745;DHT22;14342;50.960;13.880;2022-11-20T03:58:59;-1.90;99.90
26745;DHT22;14342;50.960;13.880;2022-11-20T04:00:01;-1.90;99.90
26745;DHT22;14342;50.960;13.880;2022-11-20T04:01:08;-2.10;99.90
26745;DHT22;14342;50.960;13.880;2022-11-20T04:02:09;-2.30;99.90
26745;DHT22;14342;50.960;13.880;2022-11-20T04:03:10;-2.50;99.90
26745;DHT22;14342;50.960;13.880;2022-11-20T04:04:11;-2.60;99.90
26745;DHT22;14342;50.960;13.880;2022-11-20T04:05:12;-2.70;99.90
26745;DHT22;14342;50.960;13.880;2022-11-20T04:06:15;-2.60;99.90
26745;DHT22;14342;50.960;13.880;2022-11-20T04:07:16;-2.60;99.90
26745;DHT22;14342;50.960;13.880;2022-11-20T04:08:18;-2.40;99.90
26745;DHT22;14342;50.960;13.880;2022-11-20T04:09:18;-2.80;99.90
26745;DHT22;14342;50.960;13.880;2022-11-20T04:10:20;-2.80;99.90
26745;DHT22;14342;50.960;13.880;2022-11-20T04:11:21;-3.00;99.90
26745;DHT22;14342;50.960;13.880;2022-11-20T04:12:25;-3.00;99.90
26745;DHT22;14342;50.960;13.880;2022-11-20T04:13:25;-3.00;99.90
26745;DHT22;14342;50.960;13.880;2022-11-20T04:14:27;-3.00;99.90
26745;DHT22;14342;50.960;13.880;2022-11-20T04:15:27;-3.00;99.90
26745;DHT22;14342;50.960;13.880;2022-11-20T04:16:29;-2.90;99.90
26745;DHT22;14342;50.960;13.880;2022-11-20T04:17:30;-2.90;99.90
26745;DHT22;14342;50.960;13.880;2022-11-20T04:18:32;-2.70;99.90
26745;DHT22;14342;50.960;13.880;2022-11-20T04:19:33;-2.70;99.90
26745;DHT22;14342;50.960;13.880;2022-11-20T04:20:34;-2.70;99.90
26745;DHT22;14342;50.960;13.880;2022-11-20T04:21:35;-2.60;99.90
26745;DHT22;14342;50.960;13.880;2022-11-20T04:22:37;-2.50;99.90
26745;DHT22;14342;50.960;13.880;2022-11-20T04:23:38;-2.40;99.90
26745;DHT22;14342;50.960;13.880;2022-11-20T04:24:39;-2.50;99.90
26745;DHT22;14342;50.960;13.880;2022-11-20T04:25:40;-2.50;99.90
26745;DHT22;14342;50.960;13.880;2022-11-20T04:26:42;-2.50;99.90
26745;DHT22;14342;50.960;13.880;2022-11-20T04:27:44;-2.60;99.90
26745;DHT22;14342;50.960;13.880;2022-11-20T04:28:45;-2.60;99.90
26745;DHT22;14342;50.960;13.880;2022-11-20T04:29:46;-2.70;99.90
26745;DHT22;14342;50.960;13.880;2022-11-20T04:30:47;-2.70;99.90
26745;DHT22;14342;50.960;13.880;2022-11-20T04:31:48;-2.50;99.90
26745;DHT22;14342;50.960;13.880;2022-11-20T04:32:50;-2.70;99.90
26745;DHT22;14342;50.960;13.880;2022-11-20T04:33:50;-2.70;99.90
26745;DHT22;14342;50.960;13.880;2022-11-20T04:34:52;-2.80;99.90
26745;DHT22;14342;50.960;13.880;2022-11-20T04:35:53;-2.80;99.90
26745;DHT22;14342;50.960;13.880;2022-11-20T04:36:54;-2.80;99.90
26745;DHT22;14342;50.960;13.880;2022-11-20T04:37:55;-2.80;99.90
26745;DHT22;14342;50.960;13.880;2022-11-20T04:38:57;-2.80;99.90
26745;DHT22;14342;50.960;13.880;2022-11-20T04:39:58;-2.80;99.90
26745;DHT22;14342;50.960;13.880;2022-11-20T04:40:59;-2.70;99.90
26745;DHT22;14342;50.960;13.880;2022-11-20T04:42:01;-2.70;99.90
26745;DHT22;14342;50.960;13.880;2022-11-20T04:43:21;-2.70;99.90
26745;DHT22;14342;50.960;13.880;2022-11-20T04:44:23;-2.80;99.90
26745;DHT22;14342;50.960;13.880;2022-11-20T04:45:23;-2.80;99.90
26745;DHT22;14342;50.960;13.880;2022-11-20T04:46:26;-2.80;99.90
26745;DHT22;14342;50.960;13.880;2022-11-20T04:47:26;-2.70;99.90
26745;DHT22;14342;50.960;13.880;2022-11-20T04:48:28;-2.90;99.90
26745;DHT22;14342;50.960;13.880;2022-11-20T04:49:29;-2.90;99.90
26745;DHT22;14342;50.960;13.880;2022-11-20T04:50:31;-2.90;99.90
26745;DHT22;14342;50.960;13.880;2022-11-20T04:51:32;-2.90;99.90
26745;DHT22;14342;50.960;13.880;2022-11-20T04:52:34;-3.00;99.90
26745;DHT22;14342;50.960;13.880;2022-11-20T04:53:34;-3.10;99.90
26745;DHT22;14342;50.960;13.880;2022-11-20T04:54:36;-3.20;99.90
26745;DHT22;14342;50.960;13.880;2022-11-20T04:55:36;-3.30;99.90
26745;DHT22;14342;50.960;13.880;2022-11-20T04:56:38;-3.40;99.90
26745;DHT22;14342;50.960;13.880;2022-11-20T04:57:39;-3.50;99.90
26745;DHT22;14342;50.960;13.880;2022-11-20T04:58:42;-3.50;99.90
26745;DHT22;14342;50.960;13.880;2022-11-20T04:59:42;-3.60;99.90
26745;DHT22;14342;50.960;13.880;2022-11-20T05:00:44;-3.60;99.90
26745;DHT22;14342;50.960;13.880;2022-11-20T05:01:44;-3.60;99.90
26745;DHT22;14342;50.960;13.880;2022-11-20T05:02:46;-3.60;99.90
26745;DHT22;14342;50.960;13.880;2022-11-20T05:03:46;-3.50;99.90
26745;DHT22;14342;50.960;13.880;2022-11-20T05:04:48;-3.50;99.90
26745;DHT22;14342;50.960;13.880;2022-11-20T05:05:49;-3.60;99.90
26745;DHT22;14342;50.960;13.880;2022-11-20T05:06:50;-3.50;99.90
26745;DHT22;14342;50.960;13.880;2022-11-20T05:07:51;-3.40;99.90
26745;DHT22;14342;50.960;13.880;2022-11-20T05:08:52;-3.20;99.90
26745;DHT22;14342;50.960;13.880;2022-11-20T05:09:53;-3.00;99.90
26745;DHT22;14342;50.960;13.880;2022-11-20T05:10:58;-3.00;99.90
26745;DHT22;14342;50.960;13.880;2022-11-20T05:11:59;-2.90;99.90
26745;DHT22;14342;50.960;13.880;2022-11-20T05:13:01;-2.80;99.90
26745;DHT22;14342;50.960;13.880;2022-11-20T05:14:02;-2.80;99.90
26745;DHT22;14342;50.960;13.880;2022-11-20T05:15:04;-2.60;99.90
26745;DHT22;14342;50.960;13.880;2022-11-20T05:16:06;-2.50;99.90
26745;DHT22;14342;50.960;13.880;2022-11-20T05:17:09;-2.50;99.90
26745;DHT22;14342;50.960;13.880;2022-11-20T05:18:10;-2.50;99.90
26745;DHT22;14342;50.960;13.880;2022-11-20T05:19:11;-2.40;99.90
26745;DHT22;14342;50.960;13.880;2022-11-20T05:20:12;-2.40;99.90
26745;DHT22;14342;50.960;13.880;2022-11-20T05:21:14;-2.40;99.90
26745;DHT22;14342;50.960;13.880;2022-11-20T05:22:16;-2.30;99.90
26745;DHT22;14342;50.960;13.880;2022-11-20T05:23:16;-2.30;99.90
26745;DHT22;14342;50.960;13.880;2022-11-20T05:24:18;-2.20;99.90
26745;DHT22;14342;50.960;13.880;2022-11-20T05:25:18;-2.10;99.90
26745;DHT22;14342;50.960;13.880;2022-11-20T05:26:21;-2.20;99.90
26745;DHT22;14342;50.960;13.880;2022-11-20T05:27:23;-2.20;99.90
26745;DHT22;14342;50.960;13.880;2022-11-20T05:28:25;-2.20;99.90
26745;DHT22;14342;50.960;13.880;2022-11-20T05:29:27;-2.20;99.90
26745;DHT22;14342;50.960;13.880;2022-11-20T05:30:28;-2.20;99.90
26745;DHT22;14342;50.960;13.880;2022-11-20T05:31:29;-2.20;99.90
26745;DHT22;14342;50.960;13.880;2022-11-20T05:32:30;-2.00;99.90
26745;DHT22;14342;50.960;13.880;2022-11-20T05:33:32;-2.30;99.90
26745;DHT22;14342;50.960;13.880;2022-11-20T05:34:33;-2.30;99.90
26745;DHT22;14342;50.960;13.880;2022-11-20T05:35:34;-2.40;99.90
26745;DHT22;14342;50.960;13.880;2022-11-20T05:36:35;-2.40;99.90
26745;DHT22;14342;50.960;13.880;2022-11-20T05:37:36;-2.40;99.90
26745;DHT22;14342;50.960;13.880;2022-11-20T05:38:37;-2.50;99.90
26745;DHT22;14342;50.960;13.880;2022-11-20T05:39:38;-2.50;99.90
26745;DHT22;14342;50.960;13.880;2022-11-20T05:40:40;-2.50;99.90
26745;DHT22;14342;50.960;13.880;2022-11-20T05:41:40;-2.50;99.90
26745;DHT22;14342;50.960;13.880;2022-11-20T05:42:42;-2.50;99.90
26745;DHT22;14342;50.960;13.880;2022-11-20T05:43:44;-2.40;99.90
26745;DHT22;14342;50.960;13.880;2022-11-20T05:44:47;-2.40;99.90
26745;DHT22;14342;50.960;13.880;2022-11-20T05:45:51;-2.40;99.90
26745;DHT22;14342;50.960;13.880;2022-11-20T05:46:53;-2.30;99.90
26745;DHT22;14342;50.960;13.880;2022-11-20T05:47:57;-2.30;99.90
26745;DHT22;14342;50.960;13.880;2022-11-20T05:48:58;-2.40;99.90
26745;DHT22;14342;50.960;13.880;2022-11-20T05:49:59;-2.30;99.90
26745;DHT22;14342;50.960;13.880;2022-11-20T05:51:01;-2.50;99.90
26745;DHT22;14342;50.960;13.880;2022-11-20T05:52:03;-2.50;99.90
26745;DHT22;14342;50.960;13.880;2022-11-20T05:53:04;-2.40;99.90
26745;DHT22;14342;50.960;13.880;2022-11-20T05:54:06;-2.30;99.90
26745;DHT22;14342;50.960;13.880;2022-11-20T05:55:07;-2.20;99.90
26745;DHT22;14342;50.960;13.880;2022-11-20T05:56:09;-2.10;99.90
26745;DHT22;14342;50.960;13.880;2022-11-20T05:57:10;-2.00;99.90
26745;DHT22;14342;50.960;13.880;2022-11-20T05:58:11;-2.10;99.90
26745;DHT22;14342;50.960;13.880;2022-11-20T05:59:12;-2.10;99.90
26745;DHT22;14342;50.960;13.880;2022-11-20T06:00:15;-2.00;99.90
26745;DHT22;14342;50.960;13.880;2022-11-20T06:01:17;-1.90;99.90
26745;DHT22;14342;50.960;13.880;2022-11-20T06:02:19;-1.80;99.90
26745;DHT22;14342;50.960;13.880;2022-11-20T06:03:19;-1.70;99.90
26745;DHT22;14342;50.960;13.880;2022-11-20T06:04:21;-1.80;99.90
26745;DHT22;14342;50.960;13.880;2022-11-20T06:05:22;-1.80;99.90
26745;DHT22;14342;50.960;13.880;2022-11-20T06:06:23;-1.70;99.90
26745;DHT22;14342;50.960;13.880;2022-11-20T06:07:26;-1.70;99.90
26745;DHT22;14342;50.960;13.880;2022-11-20T06:08:26;-1.70;99.90
26745;DHT22;14342;50.960;13.880;2022-11-20T06:09:28;-1.80;99.90
26745;DHT22;14342;50.960;13.880;2022-11-20T06:10:29;-1.80;99.90
26745;DHT22;14342;50.960;13.880;2022-11-20T06:11:31;-1.90;99.90
26745;DHT22;14342;50.960;13.880;2022-11-20T06:12:32;-2.00;99.90
26745;DHT22;14342;50.960;13.880;2022-11-20T06:13:33;-2.10;99.90
26745;DHT22;14342;50.960;13.880;2022-11-20T06:14:35;-2.10;99.90
26745;DHT22;14342;50.960;13.880;2022-11-20T06:15:37;-2.20;99.90
26745;DHT22;14342;50.960;13.880;2022-11-20T06:16:38;-2.20;99.90
26745;DHT22;14342;50.960;13.880;2022-11-20T06:17:40;-2.20;99.90
26745;DHT22;14342;50.960;13.880;2022-11-20T06:18:40;-2.30;99.90
26745;DHT22;14342;50.960;13.880;2022-11-20T06:19:42;-2.40;99.90
26745;DHT22;14342;50.960;13.880;2022-11-20T06:20:42;-2.60;99.90
26745;DHT22;14342;50.960;13.880;2022-11-20T06:21:44;-2.50;99.90
26745;DHT22;14342;50.960;13.880;2022-11-20T06:22:45;-2.80;99.90
26745;DHT22;14342;50.960;13.880;2022-11-20T06:23:46;-3.00;99.90
26745;DHT22;14342;50.960;13.880;2022-11-20T06:24:47;-3.10;99.90
26745;DHT22;14342;50.960;13.880;2022-11-20T06:25:49;-3.20;99.90